Time;durP1;ratioP1;P1;durP2;ratioP2;P2;SDS_P1;SDS_P2;PMS_P1;PMS_P2;Temp;Humidity;BMP_temperature;BMP_pressure;BME280_temperature;BME280_humidity;BME280_pressure;Samples;Min_cycle;Max_cycle;Signal;HPM_P1;HPM_P2
2022/09/27 00:00:37;;;;;;;1.35;0.30;;;;;;;13.24;51.56;98907.31;4922034;28;97527;-69
2022/09/27 00:03:04;;;;;;;1.05;0.30;;;;;;;13.24;51.68;98904.63;4914598;28;97763;-66
2022/09/27 00:05:30;;;;;;;3.33;0.40;;;;;;;13.21;51.56;98906.03;4933395;28;97852;-66
2022/09/27 00:07:56;;;;;;;1.02;0.30;;;;;;;13.20;51.78;98896.34;4924140;28;100022;-66
2022/09/27 00:10:22;;;;;;;1.48;0.30;;;;;;;13.18;51.97;98898.56;4917099;28;121514;-68
2022/09/27 00:12:49;;;;;;;1.63;0.20;;;;;;;13.17;51.89;98891.56;4926833;28;97402;-66
2022/09/27 00:15:15;;;;;;;1.00;0.30;;;;;;;13.17;52.44;98888.88;4914230;28;97811;-68
2022/09/27 00:17:42;;;;;;;1.30;0.22;;;;;;;13.15;51.96;98885.69;4912509;28;97724;-68
2022/09/27 00:20:09;;;;;;;1.10;0.30;;;;;;;13.16;51.82;98891.88;4912191;28;97932;-68
2022/09/27 00:22:36;;;;;;;0.88;0.22;;;;;;;13.14;52.07;98880.59;4922867;28;97967;-69
2022/09/27 00:25:04;;;;;;;1.20;0.30;;;;;;;13.12;52.39;98880.91;4918056;28;115770;-66
2022/09/27 00:27:30;;;;;;;0.90;0.30;;;;;;;13.11;51.95;98875.81;4906734;28;97622;-69
2022/09/27 00:29:57;;;;;;;2.25;0.32;;;;;;;13.09;52.26;98878.88;4885876;28;97574;-69
2022/09/27 00:32:23;;;;;;;2.92;0.38;;;;;;;13.07;52.19;98872.97;4888596;28;96992;-66
2022/09/27 00:34:49;;;;;;;0.80;0.28;;;;;;;13.07;52.15;98867.56;4902478;28;97788;-66
2022/09/27 00:37:15;;;;;;;0.55;0.20;;;;;;;13.03;52.24;98870.09;4905958;28;97870;-66
2022/09/27 00:39:42;;;;;;;1.83;0.38;;;;;;;13.02;52.65;98865.81;4917236;28;98144;-66
2022/09/27 00:42:14;;;;;;;0.90;0.20;;;;;;;12.97;52.20;98855.19;4889518;28;97610;-69
2022/09/27 00:44:40;;;;;;;0.80;0.20;;;;;;;12.96;52.44;98850.88;4913808;28;100491;-66
2022/09/27 00:47:32;;;;;;;1.50;0.20;;;;;;;12.92;52.10;98852.63;4947609;28;97790;-66
2022/09/27 00:50:24;;;;;;;1.53;0.40;;;;;;;12.87;52.31;98842.00;4911489;28;97542;-66
2022/09/27 00:53:15;;;;;;;0.90;0.30;;;;;;;12.87;52.13;98841.19;4923519;28;97563;-68
2022/09/27 00:55:58;;;;;;;2.15;0.40;;;;;;;12.86;52.01;98829.59;4901354;28;100320;-66
2022/09/27 00:58:28;;;;;;;1.70;0.28;;;;;;;12.86;52.21;98828.81;4913918;28;100306;-66
2022/09/27 01:01:01;;;;;;;1.17;0.25;;;;;;;12.88;52.43;98829.25;4916854;28;99318;-68
2022/09/27 01:03:46;;;;;;;3.17;0.30;;;;;;;12.87;52.47;98830.38;4911617;28;97751;-66
2022/09/27 01:06:13;;;;;;;1.20;0.23;;;;;;;12.85;52.59;98822.59;4908436;28;98033;-69
2022/09/27 01:08:39;;;;;;;0.75;0.20;;;;;;;12.86;52.80;98813.38;4899896;28;97692;-66
2022/09/27 01:11:11;;;;;;;0.80;0.22;;;;;;;12.87;52.84;98820.34;4901137;28;97613;-66
2022/09/27 01:13:42;;;;;;;;;;;;;;;12.78;52.00;98811.47;4946240;28;98042;-66
2022/09/27 01:16:23;;;;;;;1.38;0.20;;;;;;;12.84;52.29;98806.69;4906801;28;97928;-66
2022/09/27 01:19:07;;;;;;;2.85;0.43;;;;;;;12.83;52.31;98794.28;4917545;28;97556;-69
2022/09/27 01:21:50;;;;;;;0.40;0.15;;;;;;;12.85;52.79;98808.25;4932987;28;97684;-69
2022/09/27 01:24:54;;;;;;;0.45;0.10;;;;;;;12.84;52.37;98801.28;4937599;28;97504;-69
2022/09/27 01:28:00;;;;;;;1.13;0.20;;;;;;;12.83;52.34;98797.78;4949911;28;98217;-69
2022/09/27 01:30:50;;;;;;;1.70;0.25;;;;;;;12.87;52.68;98787.91;4940943;28;97733;-65
2022/09/27 01:33:46;;;;;;;1.17;0.20;;;;;;;12.82;52.51;98785.38;4926791;28;97751;-66
2022/09/27 01:36:37;;;;;;;0.30;0.10;;;;;;;12.84;52.61;98780.44;4909169;28;97882;-66
2022/09/27 01:39:38;;;;;;;1.15;0.13;;;;;;;12.80;52.42;98779.50;4938411;28;97803;-68
2022/09/27 01:42:24;;;;;;;1.15;0.20;;;;;;;12.81;52.50;98775.69;4949000;28;97687;-66
2022/09/27 01:44:58;;;;;;;1.13;0.20;;;;;;;12.85;52.54;98765.00;4926832;28;97897;-69
2022/09/27 01:47:57;;;;;;;1.00;0.30;;;;;;;12.84;52.52;98766.91;4914699;28;97654;-69
2022/09/27 01:50:47;;;;;;;0.90;0.13;;;;;;;12.81;52.38;98764.88;4925319;28;119028;-66
2022/09/27 01:53:49;;;;;;;0.47;0.13;;;;;;;12.84;52.59;98766.13;4907619;28;97579;-69
2022/09/27 01:56:21;;;;;;;1.08;0.17;;;;;;;12.85;52.93;98763.13;4946377;28;98983;-66
2022/09/27 01:59:13;;;;;;;0.95;0.20;;;;;;;12.86;52.67;98755.78;4900792;28;97610;-69
2022/09/27 02:01:39;;;;;;;0.22;0.10;;;;;;;12.88;52.83;98758.94;4921672;28;99650;-69
2022/09/27 02:04:07;;;;;;;0.95;0.10;;;;;;;12.89;52.72;98747.00;4905351;28;97934;-66
2022/09/27 02:06:37;;;;;;;0.60;0.13;;;;;;;12.89;52.66;98747.84;4918822;28;97867;-68
2022/09/27 02:09:27;;;;;;;0.15;0.05;;;;;;;12.91;52.82;98750.19;4910699;28;97997;-66
2022/09/27 02:11:57;;;;;;;0.60;0.20;;;;;;;12.91;52.74;98742.09;4935209;28;97716;-68
2022/09/27 02:14:32;;;;;;;0.60;0.10;;;;;;;12.90;52.76;98735.88;4908285;28;97674;-69
2022/09/27 02:17:16;;;;;;;0.88;0.20;;;;;;;12.90;53.05;98733.19;4938780;28;98291;-68
2022/09/27 02:20:30;;;;;;;0.52;0.10;;;;;;;12.84;52.73;98723.66;4923880;28;97450;-66
2022/09/27 02:23:40;;;;;;;0.40;0.10;;;;;;;12.84;52.76;98720.16;4938832;28;97390;-66
2022/09/27 02:26:17;;;;;;;0.70;0.10;;;;;;;12.83;52.78;98713.97;4918901;28;98317;-69
2022/09/27 02:28:54;;;;;;;1.00;0.10;;;;;;;12.82;52.97;98714.28;4936518;28;99588;-66
2022/09/27 02:31:20;;;;;;;2.72;0.20;;;;;;;12.82;53.15;98715.09;4945731;28;97346;-69
2022/09/27 02:33:56;;;;;;;0.57;0.10;;;;;;;12.82;53.11;98709.69;4907272;28;99518;-66
2022/09/27 02:36:23;;;;;;;0.50;0.15;;;;;;;12.80;53.26;98711.91;4939606;28;98959;-66
2022/09/27 02:38:50;;;;;;;1.08;0.20;;;;;;;12.81;53.04;98708.09;4916782;28;97491;-66
2022/09/27 02:41:21;;;;;;;0.57;0.20;;;;;;;12.80;53.05;98706.50;4943360;28;97500;-70
2022/09/27 02:43:54;;;;;;;0.83;0.20;;;;;;;12.78;53.09;98706.81;4900615;28;98176;-66
2022/09/27 02:46:24;;;;;;;0.55;0.10;;;;;;;12.78;53.07;98701.41;4920276;28;97686;-68
2022/09/27 02:49:02;;;;;;;0.80;0.22;;;;;;;12.76;53.23;98700.94;4943262;28;97782;-69
2022/09/27 02:51:59;;;;;;;1.33;0.20;;;;;;;12.76;52.92;98697.44;4946118;28;97730;-69
2022/09/27 02:54:41;;;;;;;0.60;0.10;;;;;;;12.75;53.09;98693.94;4939436;28;97699;-68
2022/09/27 02:57:34;;;;;;;2.58;0.20;;;;;;;12.75;53.06;98690.47;4919955;28;98134;-69
2022/09/27 03:00:11;;;;;;;0.88;0.20;;;;;;;12.75;53.53;98693.94;4924133;28;97434;-69
2022/09/27 03:03:01;;;;;;;0.50;0.10;;;;;;;12.71;53.02;98684.13;4938462;28;96971;-66
2022/09/27 03:05:31;;;;;;;0.70;0.17;;;;;;;12.73;53.31;98682.69;4948459;28;97723;-66
2022/09/27 03:07:57;;;;;;;0.82;0.10;;;;;;;12.73;53.43;98682.69;4924755;28;97611;-66
2022/09/27 03:10:27;;;;;;;0.90;0.10;;;;;;;12.75;53.50;98682.34;4922966;28;97444;-66
2022/09/27 03:12:54;;;;;;;1.17;0.30;;;;;;;12.75;53.95;98682.34;4899578;28;97603;-66
2022/09/27 03:15:20;;;;;;;0.43;0.20;;;;;;;12.73;53.68;98687.28;4905166;28;98519;-68
2022/09/27 03:17:46;;;;;;;2.25;0.30;;;;;;;12.74;53.58;98686.19;4905214;28;122543;-66
2022/09/27 03:20:12;;;;;;;2.60;0.20;;;;;;;12.73;53.64;98679.97;4901770;28;110200;-66
2022/09/27 03:22:39;;;;;;;3.35;0.20;;;;;;;12.72;53.89;98677.59;4901100;28;97885;-66
2022/09/27 03:25:06;;;;;;;0.65;0.10;;;;;;;12.70;53.78;98677.91;4920644;28;97455;-66
2022/09/27 03:27:33;;;;;;;1.23;0.25;;;;;;;12.70;53.90;98674.44;4920417;28;97756;-69
2022/09/27 03:30:00;;;;;;;0.85;0.30;;;;;;;12.71;54.00;98673.31;4903236;28;97444;-67
2022/09/27 03:32:27;;;;;;;0.85;0.20;;;;;;;12.69;54.14;98664.72;4896978;28;97448;-69
2022/09/27 03:34:56;;;;;;;0.75;0.30;;;;;;;12.68;54.11;98660.44;4926540;28;99751;-66
2022/09/27 03:37:22;;;;;;;2.30;0.20;;;;;;;12.68;54.10;98668.53;4927917;28;99899;-66
2022/09/27 03:39:48;;;;;;;0.80;0.20;;;;;;;12.63;53.99;98661.41;4938808;28;97984;-66
2022/09/27 03:42:14;;;;;;;0.70;0.30;;;;;;;12.62;54.36;98661.75;4921535;28;97125;-66
2022/09/27 03:44:41;;;;;;;1.30;0.35;;;;;;;12.59;54.48;98654.28;4919714;28;99669;-66
2022/09/27 03:47:08;;;;;;;1.80;0.40;;;;;;;12.59;54.26;98656.97;4940393;28;97538;-69
2022/09/27 03:49:34;;;;;;;1.38;0.30;;;;;;;12.56;54.73;98647.59;4937877;28;97352;-66
2022/09/27 03:52:00;;;;;;;1.48;0.20;;;;;;;12.55;54.68;98648.72;4902611;28;97555;-66
2022/09/27 03:54:30;;;;;;;1.20;0.38;;;;;;;12.53;54.65;98642.81;4939080;28;104684;-69
2022/09/27 03:56:57;;;;;;;1.30;0.30;;;;;;;12.51;55.18;98643.16;4936694;28;97845;-69
2022/09/27 03:59:27;;;;;;;2.03;0.30;;;;;;;12.53;55.29;98643.63;4915865;28;97885;-69
2022/09/27 04:01:57;;;;;;;1.67;0.30;;;;;;;12.56;55.28;98642.19;4920143;28;97688;-69
2022/09/27 04:04:24;;;;;;;1.33;0.30;;;;;;;12.59;55.38;98640.75;4941972;28;97790;-69
2022/09/27 04:06:51;;;;;;;1.55;0.40;;;;;;;12.62;55.79;98640.13;4905794;28;97946;-69
2022/09/27 04:09:17;;;;;;;2.67;0.40;;;;;;;12.61;55.92;98633.88;4922275;28;97485;-66
2022/09/27 04:11:43;;;;;;;0.90;0.30;;;;;;;12.65;55.97;98636.75;4908197;28;119027;-66
2022/09/27 04:14:11;;;;;;;1.10;0.20;;;;;;;12.64;55.92;98633.25;4939891;28;123065;-66
2022/09/27 04:16:39;;;;;;;1.92;0.40;;;;;;;12.64;56.14;98633.25;4934881;28;98007;-66
2022/09/27 04:19:06;;;;;;;0.80;0.20;;;;;;;12.63;56.24;98637.06;4914826;28;97734;-66
2022/09/27 04:21:33;;;;;;;1.05;0.30;;;;;;;12.62;56.55;98630.09;4933588;28;97391;-66
2022/09/27 04:23:59;;;;;;;1.10;0.38;;;;;;;12.61;56.56;98636.59;4940774;28;100010;-66
2022/09/27 04:26:26;;;;;;;2.78;0.30;;;;;;;12.60;56.65;98629.59;4937093;28;97871;-69
2022/09/27 04:28:52;;;;;;;1.40;0.50;;;;;;;12.57;57.06;98630.25;4909947;28;98055;-66
2022/09/27 04:31:19;;;;;;;0.90;0.35;;;;;;;12.58;57.09;98628.38;4895672;28;97620;-69
2022/09/27 04:33:45;;;;;;;2.13;0.32;;;;;;;12.53;57.04;98626.59;4903690;28;97680;-66
2022/09/27 04:36:27;;;;;;;1.40;0.30;;;;;;;12.51;56.67;98628.84;4906982;28;97840;-69
2022/09/27 04:38:59;;;;;;;1.05;0.40;;;;;;;12.47;57.23;98625.22;4940778;28;97639;-70
2022/09/27 04:41:28;;;;;;;1.83;0.60;;;;;;;12.40;57.12;98620.31;4889973;28;97462;-68
2022/09/27 04:43:55;;;;;;;1.70;0.30;;;;;;;12.40;57.39;98633.03;4958627;28;97401;-66
2022/09/27 04:46:22;;;;;;;2.38;0.50;;;;;;;12.34;57.42;98627.03;4916298;28;97836;-69
2022/09/27 04:48:50;;;;;;;1.20;0.40;;;;;;;12.31;57.83;98626.88;4917334;28;97594;-68
2022/09/27 04:51:18;;;;;;;1.90;0.50;;;;;;;12.27;57.91;98621.31;4904770;28;97718;-69
2022/09/27 04:53:45;;;;;;;1.67;0.40;;;;;;;12.28;58.06;98631.00;4936728;28;98217;-67
2022/09/27 04:56:12;;;;;;;2.00;0.63;;;;;;;12.29;57.89;98630.66;4928847;28;99732;-69
2022/09/27 04:58:41;;;;;;;1.52;0.50;;;;;;;12.30;58.02;98631.47;4932220;28;98359;-70
2022/09/27 05:01:08;;;;;;;3.40;0.70;;;;;;;12.25;58.29;98629.72;4905007;28;97426;-69
2022/09/27 05:03:34;;;;;;;2.25;0.60;;;;;;;12.23;58.14;98623.88;4935941;28;98223;-66
2022/09/27 05:06:02;;;;;;;1.60;0.50;;;;;;;12.20;57.89;98623.72;4902642;28;97691;-70
2022/09/27 05:08:28;;;;;;;1.58;0.55;;;;;;;12.18;58.51;98634.84;4921851;28;97703;-66
2022/09/27 05:10:55;;;;;;;2.17;0.80;;;;;;;12.14;58.48;98625.78;4914721;28;97451;-69
2022/09/27 05:13:23;;;;;;;2.05;0.70;;;;;;;12.12;58.58;98624.53;4928144;28;98273;-69
2022/09/27 05:15:49;;;;;;;1.58;0.60;;;;;;;12.11;58.81;98623.75;4935058;28;97617;-70
2022/09/27 05:18:16;;;;;;;2.67;0.60;;;;;;;12.09;58.79;98625.16;4918838;28;97585;-70
2022/09/27 05:20:43;;;;;;;1.15;0.60;;;;;;;12.07;58.85;98627.41;4927551;28;97538;-69
2022/09/27 05:23:12;;;;;;;1.73;0.60;;;;;;;12.06;59.02;98628.50;4940926;28;97826;-70
2022/09/27 05:25:38;;;;;;;2.47;1.00;;;;;;;12.02;59.07;98626.47;4928902;28;98748;-66
2022/09/27 05:28:05;;;;;;;2.72;0.90;;;;;;;12.02;59.32;98629.16;4936482;28;97436;-69
2022/09/27 05:30:31;;;;;;;3.72;1.00;;;;;;;12.04;59.42;98623.44;4937721;28;97126;-69
2022/09/27 05:32:57;;;;;;;1.30;0.68;;;;;;;12.02;59.36;98629.16;4915607;28;97670;-66
2022/09/27 05:35:25;;;;;;;3.30;0.90;;;;;;;12.04;59.64;98628.84;4923082;28;98233;-69
2022/09/27 05:37:56;;;;;;;1.98;0.80;;;;;;;12.05;59.42;98616.91;4922093;28;97123;-69
2022/09/27 05:40:24;;;;;;;1.80;0.73;;;;;;;12.06;59.84;98620.41;4895241;28;97626;-69
2022/09/27 05:42:54;;;;;;;2.50;0.75;;;;;;;12.08;59.19;98621.69;4926358;28;98001;-70
2022/09/27 05:45:24;;;;;;;1.73;0.77;;;;;;;12.11;59.52;98622.94;4911927;28;98220;-70
2022/09/27 05:47:57;;;;;;;1.58;0.82;;;;;;;12.11;59.43;98621.03;4917568;28;99304;-70
2022/09/27 05:50:26;;;;;;;2.53;0.75;;;;;;;12.13;59.59;98620.72;4918707;28;99200;-70
2022/09/27 05:52:53;;;;;;;1.67;0.80;;;;;;;12.15;59.87;98613.09;4937132;28;97722;-70
2022/09/27 05:55:20;;;;;;;2.10;0.80;;;;;;;12.16;59.86;98620.06;4903664;28;97609;-70
2022/09/27 05:58:02;;;;;;;2.70;0.70;;;;;;;12.13;59.51;98620.72;4910428;28;98335;-70
2022/09/27 06:00:29;;;;;;;3.35;1.00;;;;;;;12.12;59.86;98624.53;4917423;28;97725;-70
2022/09/27 06:03:03;;;;;;;2.20;0.73;;;;;;;12.12;59.78;98619.91;4933078;28;97828;-70
2022/09/27 06:05:33;;;;;;;2.40;1.08;;;;;;;12.16;60.43;98620.88;4923802;28;98150;-66
2022/09/27 06:08:04;;;;;;;2.47;0.88;;;;;;;12.17;60.20;98621.66;4935940;28;98039;-66
2022/09/27 06:10:31;;;;;;;3.00;1.23;;;;;;;12.16;60.27;98622.78;4897424;28;98059;-66
2022/09/27 06:13:10;;;;;;;1.85;0.82;;;;;;;12.12;59.94;98628.03;4914291;28;97806;-66
2022/09/27 06:15:40;;;;;;;3.10;1.23;;;;;;;12.15;60.22;98629.31;4917168;28;98222;-66
2022/09/27 06:18:13;;;;;;;1.98;0.90;;;;;;;12.13;60.00;98623.41;4931193;28;97648;-66
2022/09/27 06:20:43;;;;;;;2.83;1.00;;;;;;;12.11;60.51;98626.44;4926174;28;97559;-66
2022/09/27 06:23:14;;;;;;;2.33;0.90;;;;;;;12.11;60.39;98620.25;4905652;28;98084;-66
2022/09/27 06:25:41;;;;;;;2.80;1.02;;;;;;;12.10;60.45;98624.03;4919288;28;97830;-66
2022/09/27 06:28:10;;;;;;;2.13;0.90;;;;;;;12.09;60.76;98623.25;4899282;28;127181;-65
2022/09/27 06:30:44;;;;;;;2.45;1.02;;;;;;;12.12;60.40;98627.22;4931574;28;97607;-66
2022/09/27 06:33:16;;;;;;;1.40;0.65;;;;;;;12.13;60.40;98621.50;4900423;28;97866;-66
2022/09/27 06:35:44;;;;;;;2.15;1.05;;;;;;;12.16;60.66;98628.97;4894220;28;101285;-66
2022/09/27 06:38:14;;;;;;;1.98;1.02;;;;;;;12.19;60.78;98622.94;4901732;28;98246;-66
2022/09/27 06:40:45;;;;;;;4.60;1.20;;;;;;;12.23;60.74;98631.97;4915790;28;97906;-66
2022/09/27 06:43:16;;;;;;;3.28;1.08;;;;;;;12.26;60.75;98623.22;4912695;28;98008;-66
2022/09/27 06:45:42;;;;;;;4.10;1.20;;;;;;;12.31;60.72;98626.88;4915248;28;97592;-66
2022/09/27 06:48:11;;;;;;;3.00;1.13;;;;;;;12.33;60.66;98633.53;4916536;28;97889;-66
2022/09/27 06:50:39;;;;;;;5.10;1.10;;;;;;;12.32;60.60;98625.75;4901581;28;97970;-66
2022/09/27 06:53:07;;;;;;;2.22;1.10;;;;;;;12.29;60.67;98622.56;4900157;28;100574;-66
2022/09/27 06:55:33;;;;;;;2.53;0.93;;;;;;;12.27;60.75;98624.03;4934889;28;97636;-66
2022/09/27 07:00:52;;;;;;;1.75;0.77;;;;;;;12.20;60.54;98621.81;4932030;28;97774;-69
2022/09/27 07:03:18;;;;;;;3.55;1.08;;;;;;;12.25;61.15;98621.63;4913037;28;97902;-66
2022/09/27 07:05:58;;;;;;;1.70;0.93;;;;;;;12.27;60.43;98615.91;4900686;28;101238;-66
2022/09/27 07:08:27;;;;;;;2.38;1.13;;;;;;;12.32;60.98;98620.34;4913699;28;99504;-65
2022/09/27 07:10:54;;;;;;;1.95;1.17;;;;;;;12.41;60.99;98619.19;4921958;28;97805;-66
2022/09/27 07:13:20;;;;;;;3.03;1.15;;;;;;;12.58;60.52;98620.25;4922780;28;98324;-66
2022/09/27 07:15:47;;;;;;;1.77;0.93;;;;;;;12.76;60.19;98621.75;4909010;28;97773;-66
2022/09/27 07:18:13;;;;;;;2.83;0.98;;;;;;;12.93;60.13;98623.56;4904124;28;99033;-66
2022/09/27 07:20:39;;;;;;;2.42;1.10;;;;;;;13.13;60.02;98622.03;4900176;28;97776;-66
2022/09/27 07:23:07;;;;;;;1.60;0.90;;;;;;;13.28;59.91;98624.16;4900185;28;97702;-66
2022/09/27 07:25:33;;;;;;;2.20;1.13;;;;;;;13.44;59.73;98614.34;4930784;28;98421;-66
2022/09/27 07:28:07;;;;;;;1.83;1.00;;;;;;;13.62;59.18;98619.63;4938503;28;97721;-70
2022/09/27 07:30:34;;;;;;;2.72;0.85;;;;;;;13.82;59.20;98618.78;4905155;28;97825;-70
2022/09/27 07:33:04;;;;;;;2.08;1.00;;;;;;;14.02;59.21;98629.91;4932522;28;98243;-70
2022/09/27 07:35:31;;;;;;;2.95;1.10;;;;;;;14.10;58.98;98637.94;4916048;28;98164;-70
2022/09/27 07:37:57;;;;;;;2.17;1.02;;;;;;;14.08;59.57;98640.22;4922185;28;97434;-70
2022/09/27 07:40:24;;;;;;;4.25;1.52;;;;;;;14.04;59.56;98633.88;4933896;28;97454;-66
2022/09/27 07:42:57;;;;;;;6.20;1.40;;;;;;;14.03;59.24;98632.31;4932754;28;97986;-66
2022/09/27 07:45:24;;;;;;;2.28;1.00;;;;;;;14.04;59.37;98633.09;4942119;28;97987;-66
2022/09/27 07:47:51;;;;;;;3.40;1.45;;;;;;;14.07;59.25;98627.81;4935005;28;97601;-66
2022/09/27 07:50:17;;;;;;;1.73;1.10;;;;;;;14.24;59.27;98626.81;4910997;28;97725;-66
2022/09/27 07:52:46;;;;;;;2.10;1.20;;;;;;;14.42;58.84;98613.84;4927054;28;98336;-66
2022/09/27 07:55:14;;;;;;;2.65;1.35;;;;;;;14.55;59.08;98620.13;4902861;28;97950;-66
2022/09/27 07:57:40;;;;;;;4.22;1.58;;;;;;;14.81;58.71;98620.56;4912895;28;98318;-66
2022/09/27 08:00:15;;;;;;;2.17;1.08;;;;;;;15.04;58.43;98618.19;4911517;28;97805;-66
2022/09/27 08:02:42;;;;;;;1.85;1.20;;;;;;;14.92;58.73;98629.84;4930564;28;97769;-66
2022/09/27 08:05:09;;;;;;;2.70;1.13;;;;;;;14.85;58.97;98631.53;4950558;28;97640;-66
2022/09/27 08:07:38;;;;;;;1.92;1.27;;;;;;;14.81;59.21;98615.16;4914451;28;98133;-66
2022/09/27 08:10:06;;;;;;;2.05;0.98;;;;;;;14.69;59.34;98620.56;4905978;28;98177;-66
2022/09/27 08:12:32;;;;;;;2.13;0.93;;;;;;;14.58;59.54;98620.25;4933942;28;100035;-66
2022/09/27 08:15:00;;;;;;;1.92;0.93;;;;;;;14.57;59.35;98628.69;4931297;28;98098;-66
2022/09/27 08:17:28;;;;;;;3.05;1.35;;;;;;;14.61;59.16;98624.97;4915281;28;97525;-66
2022/09/27 08:19:55;;;;;;;1.75;0.73;;;;;;;14.52;59.72;98621.59;4939634;28;99383;-67
2022/09/27 08:22:23;;;;;;;1.63;0.80;;;;;;;14.42;59.49;98632.81;4919722;28;98793;-66
2022/09/27 08:24:49;;;;;;;1.70;0.85;;;;;;;14.25;59.63;98640.03;4920835;28;98159;-66
2022/09/27 08:27:16;;;;;;;2.05;0.95;;;;;;;14.15;59.94;98634.25;4913688;28;98979;-66
2022/09/27 08:29:43;;;;;;;2.45;1.30;;;;;;;14.06;60.30;98630.84;4922564;28;97696;-66
2022/09/27 08:32:09;;;;;;;2.22;1.05;;;;;;;14.07;60.09;98627.81;4908783;28;98839;-66
2022/09/27 08:34:36;;;;;;;2.47;0.98;;;;;;;14.07;60.47;98621.56;4907088;28;97675;-66
2022/09/27 08:37:13;;;;;;;2.30;0.98;;;;;;;14.03;60.27;98629.59;4949183;28;97957;-69
2022/09/27 08:39:41;;;;;;;3.05;0.90;;;;;;;14.02;60.52;98638.03;4939785;28;97577;-66
2022/09/27 08:42:48;;;;;;;2.85;1.08;;;;;;;14.08;59.85;98628.59;4930598;28;97680;-69
2022/09/27 08:45:41;;;;;;;1.98;1.25;;;;;;;14.23;59.66;98622.53;4920489;28;97768;-66
2022/09/27 08:48:08;;;;;;;2.60;1.08;;;;;;;14.26;60.32;98629.97;4966039;28;97964;-69
2022/09/27 08:50:40;;;;;;;2.35;1.17;;;;;;;14.33;59.67;98630.22;4905698;28;97804;-66
2022/09/27 08:53:21;;;;;;;2.20;1.23;;;;;;;14.53;59.26;98622.38;4917299;28;97661;-70
2022/09/27 08:55:53;;;;;;;4.78;1.73;;;;;;;14.71;59.23;98629.19;4954031;28;98080;-66
2022/09/27 08:58:31;;;;;;;2.35;1.30;;;;;;;14.77;59.27;98632.44;4926287;28;98294;-70
2022/09/27 09:01:07;;;;;;;2.38;1.25;;;;;;;14.92;59.65;98631.75;4919027;28;97659;-66
2022/09/27 09:03:36;;;;;;;4.88;1.20;;;;;;;15.09;59.33;98628.00;4921411;28;97891;-66
2022/09/27 09:06:31;;;;;;;1.20;0.80;;;;;;;15.16;58.85;98631.72;4917647;28;99569;-66
2022/09/27 09:09:09;;;;;;;3.33;0.90;;;;;;;15.20;59.24;98627.19;4938110;28;97912;-66
2022/09/27 09:15:14;;;;;;;2.20;0.63;;;;;;;15.46;58.22;98626.03;4957509;28;98110;-67
2022/09/27 09:18:10;;;;;;;1.55;0.60;;;;;;;15.59;58.46;98643.84;4968513;28;97777;-66
2022/09/27 09:21:10;;;;;;;1.13;0.43;;;;;;;15.83;57.83;98634.84;4934006;28;98551;-70
2022/09/27 09:24:07;;;;;;;1.45;0.47;;;;;;;16.00;57.46;98630.28;4963731;28;97904;-70
2022/09/27 09:27:09;;;;;;;1.15;0.38;;;;;;;15.78;57.99;98626.19;4951890;28;100451;-70
2022/09/27 09:30:21;;;;;;;0.90;0.20;;;;;;;15.77;57.86;98630.81;4955626;28;97994;-67
2022/09/27 09:33:23;;;;;;;0.63;0.22;;;;;;;16.14;57.06;98627.94;4935972;28;97718;-70
2022/09/27 09:36:03;;;;;;;0.85;0.17;;;;;;;16.53;56.67;98626.22;4959233;28;97510;-70
2022/09/27 09:38:43;;;;;;;1.35;0.20;;;;;;;16.24;57.37;98630.16;4904296;28;109798;-69
2022/09/27 09:41:26;;;;;;;0.75;0.10;;;;;;;16.09;57.48;98626.25;4941477;28;97986;-66
2022/09/27 09:44:26;;;;;;;0.38;0.10;;;;;;;16.31;57.07;98619.47;4902693;28;104548;-70
2022/09/27 09:46:56;;;;;;;0.20;0.10;;;;;;;17.29;55.03;98618.69;4907431;28;97408;-70
2022/09/27 09:49:38;;;;;;;0.60;0.10;;;;;;;17.49;54.98;98614.06;4901535;28;98049;-67
2022/09/27 09:52:18;;;;;;;0.32;0.03;;;;;;;17.45;55.09;98615.91;4920459;28;98827;-67
2022/09/27 09:54:57;;;;;;;0.63;0.00;;;;;;;17.49;55.29;98613.22;4919662;28;98084;-68
2022/09/27 09:57:30;;;;;;;0.32;0.00;;;;;;;17.40;54.96;98613.44;4948479;28;97628;-66
2022/09/27 10:00:18;;;;;;;0.13;0.00;;;;;;;16.78;56.47;98609.72;4935217;28;97624;-67
2022/09/27 10:02:46;;;;;;;0.43;0.08;;;;;;;16.47;56.33;98615.97;4919222;28;98852;-70
2022/09/27 10:05:18;;;;;;;0.17;0.00;;;;;;;16.19;56.77;98623.03;4921781;28;97659;-67
2022/09/27 10:07:45;;;;;;;0.20;0.00;;;;;;;15.96;56.92;98624.75;4911543;28;97994;-70
2022/09/27 10:10:16;;;;;;;0.45;0.10;;;;;;;15.79;57.03;98619.59;4917772;28;97758;-67
2022/09/27 10:12:43;;;;;;;0.40;0.10;;;;;;;15.69;56.92;98618.19;4917386;28;97957;-67
2022/09/27 10:15:24;;;;;;;0.52;0.10;;;;;;;15.60;57.05;98617.50;4950599;28;119250;-70
2022/09/27 10:17:53;;;;;;;1.05;0.13;;;;;;;15.60;57.14;98620.19;4909712;28;98107;-70
2022/09/27 10:20:33;;;;;;;0.32;0.05;;;;;;;15.79;56.58;98627.75;4914555;28;97801;-67
2022/09/27 10:23:16;;;;;;;0.55;0.10;;;;;;;16.25;55.69;98620.06;4934919;28;97969;-70
2022/09/27 10:25:59;;;;;;;0.30;0.00;;;;;;;17.52;53.45;98620.69;4911517;28;97579;-70
2022/09/27 10:28:40;;;;;;;0.95;0.08;;;;;;;18.77;52.10;98615.63;4933269;28;98016;-71
2022/09/27 10:31:10;;;;;;;0.63;0.10;;;;;;;18.74;52.05;98608.19;4916802;28;100237;-70
2022/09/27 10:33:53;;;;;;;0.00;0.00;;;;;;;18.66;52.55;98606.47;4900413;28;98009;-67
2022/09/27 10:36:28;;;;;;;0.52;0.00;;;;;;;19.02;52.30;98601.56;4937619;28;98381;-67
2022/09/27 10:39:03;;;;;;;0.20;0.03;;;;;;;18.86;52.36;98612.66;4929678;28;96929;-70
2022/09/27 10:41:37;;;;;;;0.10;0.00;;;;;;;19.12;52.34;98607.19;4918955;28;97707;-70
2022/09/27 10:44:25;;;;;;;0.00;0.00;;;;;;;21.86;48.19;98601.78;4932623;28;97864;-67
2022/09/27 10:47:07;;;;;;;0.22;0.00;;;;;;;23.12;46.57;98605.44;4920070;28;97630;-68
2022/09/27 10:49:43;;;;;;;0.10;0.00;;;;;;;24.00;46.31;98606.28;4918274;28;97909;-67
2022/09/27 10:52:21;;;;;;;0.10;0.00;;;;;;;23.26;47.71;98608.94;4919450;28;98385;-70
2022/09/27 10:55:04;;;;;;;0.00;0.00;;;;;;;21.99;49.34;98627.69;4923148;28;97776;-68
2022/09/27 10:57:30;;;;;;;0.98;0.00;;;;;;;20.88;49.78;98653.69;4902137;28;114452;-68
2022/09/27 11:00:30;;;;;;;2.30;0.00;;;;;;;19.84;51.49;98658.09;4920491;28;97944;-68
2022/09/27 11:03:00;;;;;;;0.00;0.00;;;;;;;19.09;51.92;98659.00;4949080;28;99595;-67
2022/09/27 11:05:26;;;;;;;0.00;0.00;;;;;;;18.48;52.27;98658.00;4907345;28;97995;-67
2022/09/27 11:08:02;;;;;;;0.00;0.00;;;;;;;17.99;52.84;98661.38;4952881;28;97504;-68
2022/09/27 11:10:39;;;;;;;0.00;0.00;;;;;;;17.89;52.58;98662.75;4914557;28;97873;-70
2022/09/27 11:13:11;;;;;;;0.20;0.00;;;;;;;19.15;50.22;98659.50;4905828;28;100080;-67
2022/09/27 11:16:04;;;;;;;0.00;0.00;;;;;;;19.85;49.59;98651.50;4941210;28;97884;-70
2022/09/27 11:18:52;;;;;;;0.00;0.00;;;;;;;19.42;50.75;98655.59;4955596;28;97942;-71
2022/09/27 11:21:33;;;;;;;0.17;0.00;;;;;;;19.94;49.61;98648.47;4955397;28;97758;-71
2022/09/27 11:24:34;;;;;;;1.02;0.00;;;;;;;19.78;50.22;98647.88;4917963;28;98172;-71
2022/09/27 11:27:47;;;;;;;0.00;0.00;;;;;;;19.33;50.73;98652.34;4949703;28;97929;-67
2022/09/27 11:30:19;;;;;;;0.10;0.00;;;;;;;19.09;51.24;98656.28;4956941;28;97682;-70
2022/09/27 11:33:35;;;;;;;0.35;0.05;;;;;;;18.45;52.45;98652.50;4912962;28;97386;-70
2022/09/27 11:36:26;;;;;;;0.30;0.03;;;;;;;18.02;52.67;98652.50;4909528;28;98200;-70
2022/09/27 11:39:19;;;;;;;0.52;0.05;;;;;;;18.22;52.52;98655.19;4945522;28;100256;-67
2022/09/27 11:42:26;;;;;;;0.20;0.10;;;;;;;17.60;53.48;98658.63;4948669;28;98594;-71
2022/09/27 11:45:38;;;;;;;0.13;0.00;;;;;;;17.05;54.14;98670.63;4931453;28;97699;-67
2022/09/27 11:48:22;;;;;;;0.10;0.00;;;;;;;16.63;54.19;98669.22;4929721;28;100395;-67
2022/09/27 11:51:02;;;;;;;0.00;0.00;;;;;;;16.36;54.25;98670.84;4959560;28;98217;-67
2022/09/27 11:54:23;;;;;;;0.17;0.00;;;;;;;16.52;53.49;98681.75;4929160;28;98488;-71
2022/09/27 11:57:17;;;;;;;1.27;0.00;;;;;;;16.59;53.14;98676.50;4942128;28;97656;-67
2022/09/27 12:00:16;;;;;;;0.00;0.00;;;;;;;16.31;53.24;98673.84;4934081;28;97760;-72
2022/09/27 12:03:00;;;;;;;0.20;0.00;;;;;;;16.16;53.43;98688.19;4920402;28;97669;-67
2022/09/27 12:05:50;;;;;;;0.00;0.00;;;;;;;16.39;52.83;98705.50;4948401;28;97366;-70
2022/09/27 12:08:51;;;;;;;0.70;0.00;;;;;;;16.56;52.57;98704.38;4933647;28;97592;-67
2022/09/27 12:11:47;;;;;;;0.10;0.00;;;;;;;16.76;52.21;98710.75;4934444;28;98064;-70
2022/09/27 12:14:29;;;;;;;0.00;0.00;;;;;;;17.04;51.67;98709.88;4927049;28;97715;-71